sensor_id;sensor_type;location;lat;lon;timestamp;P1;durP1;ratioP1;P2;durP2;ratioP2
32146;SDS011;32190;49.112;8.598;2022-09-13T00:00:36;1.08;;;0.68;;
32146;SDS011;32190;49.112;8.598;2022-09-13T00:06:38;0.70;;;0.70;;
32146;SDS011;32190;49.112;8.598;2022-09-13T00:12:50;0.50;;;0.50;;
32146;SDS011;32190;49.112;8.598;2022-09-13T00:19:04;0.75;;;0.50;;
32146;SDS011;32190;49.112;8.598;2022-09-13T00:25:06;0.68;;;0.68;;
32146;SDS011;32190;49.112;8.598;2022-09-13T00:31:15;1.70;;;0.83;;
32146;SDS011;32190;49.112;8.598;2022-09-13T00:37:06;2.50;;;0.60;;
32146;SDS011;32190;49.112;8.598;2022-09-13T00:42:58;0.60;;;0.60;;
32146;SDS011;32190;49.112;8.598;2022-09-13T00:49:15;2.05;;;0.50;;
32146;SDS011;32190;49.112;8.598;2022-09-13T01:03:09;0.45;;;0.45;;
32146;SDS011;32190;49.112;8.598;2022-09-13T01:09:27;0.40;;;0.40;;
32146;SDS011;32190;49.112;8.598;2022-09-13T01:15:28;0.88;;;0.60;;
32146;SDS011;32190;49.112;8.598;2022-09-13T01:34:39;0.35;;;0.35;;
32146;SDS011;32190;49.112;8.598;2022-09-13T01:40:56;0.50;;;0.47;;
32146;SDS011;32190;49.112;8.598;2022-09-13T01:47:22;1.05;;;0.60;;
32146;SDS011;32190;49.112;8.598;2022-09-13T01:59:57;0.40;;;0.40;;
32146;SDS011;32190;49.112;8.598;2022-09-13T02:06:24;0.40;;;0.40;;
32146;SDS011;32190;49.112;8.598;2022-09-13T02:12:26;0.50;;;0.50;;
32146;SDS011;32190;49.112;8.598;2022-09-13T02:24:32;0.60;;;0.50;;
32146;SDS011;32190;49.112;8.598;2022-09-13T02:30:45;0.50;;;0.50;;
32146;SDS011;32190;49.112;8.598;2022-09-13T02:36:49;0.32;;;0.32;;
32146;SDS011;32190;49.112;8.598;2022-09-13T02:43:09;1.00;;;0.63;;
32146;SDS011;32190;49.112;8.598;2022-09-13T03:02:07;0.50;;;0.47;;
32146;SDS011;32190;49.112;8.598;2022-09-13T03:08:23;0.40;;;0.40;;
32146;SDS011;32190;49.112;8.598;2022-09-13T03:14:33;0.45;;;0.45;;
32146;SDS011;32190;49.112;8.598;2022-09-13T03:40:47;1.20;;;0.60;;
32146;SDS011;32190;49.112;8.598;2022-09-13T03:46:55;0.60;;;0.60;;
32146;SDS011;32190;49.112;8.598;2022-09-13T04:05:35;0.50;;;0.50;;
32146;SDS011;32190;49.112;8.598;2022-09-13T04:11:32;0.77;;;0.63;;
32146;SDS011;32190;49.112;8.598;2022-09-13T04:17:32;0.70;;;0.70;;
32146;SDS011;32190;49.112;8.598;2022-09-13T04:23:26;4.88;;;0.80;;
32146;SDS011;32190;49.112;8.598;2022-09-13T04:29:22;0.50;;;0.50;;
32146;SDS011;32190;49.112;8.598;2022-09-13T04:35:14;0.50;;;0.50;;
32146;SDS011;32190;49.112;8.598;2022-09-13T04:41:07;1.17;;;0.60;;
32146;SDS011;32190;49.112;8.598;2022-09-13T04:46:59;0.70;;;0.70;;
32146;SDS011;32190;49.112;8.598;2022-09-13T04:52:52;0.70;;;0.70;;
32146;SDS011;32190;49.112;8.598;2022-09-13T04:58:44;1.92;;;0.57;;
32146;SDS011;32190;49.112;8.598;2022-09-13T05:04:34;0.50;;;0.50;;
32146;SDS011;32190;49.112;8.598;2022-09-13T05:10:25;0.57;;;0.57;;
32146;SDS011;32190;49.112;8.598;2022-09-13T05:16:17;0.85;;;0.85;;
32146;SDS011;32190;49.112;8.598;2022-09-13T05:22:07;0.65;;;0.65;;
32146;SDS011;32190;49.112;8.598;2022-09-13T05:27:59;0.55;;;0.55;;
32146;SDS011;32190;49.112;8.598;2022-09-13T05:33:52;0.93;;;0.70;;
32146;SDS011;32190;49.112;8.598;2022-09-13T05:39:44;0.60;;;0.60;;
32146;SDS011;32190;49.112;8.598;2022-09-13T05:45:34;0.80;;;0.80;;
32146;SDS011;32190;49.112;8.598;2022-09-13T05:51:25;0.68;;;0.50;;
32146;SDS011;32190;49.112;8.598;2022-09-13T05:57:16;0.47;;;0.47;;
32146;SDS011;32190;49.112;8.598;2022-09-13T06:03:07;0.40;;;0.40;;
32146;SDS011;32190;49.112;8.598;2022-09-13T06:08:58;0.65;;;0.52;;
32146;SDS011;32190;49.112;8.598;2022-09-13T06:14:48;0.60;;;0.60;;
32146;SDS011;32190;49.112;8.598;2022-09-13T06:20:39;0.60;;;0.60;;
32146;SDS011;32190;49.112;8.598;2022-09-13T06:26:29;0.90;;;0.63;;
32146;SDS011;32190;49.112;8.598;2022-09-13T06:32:21;0.50;;;0.50;;
32146;SDS011;32190;49.112;8.598;2022-09-13T06:38:11;1.60;;;0.45;;
32146;SDS011;32190;49.112;8.598;2022-09-13T06:44:02;0.50;;;0.50;;
32146;SDS011;32190;49.112;8.598;2022-09-13T06:49:53;0.70;;;0.70;;
32146;SDS011;32190;49.112;8.598;2022-09-13T06:55:45;0.70;;;0.70;;
32146;SDS011;32190;49.112;8.598;2022-09-13T07:01:36;1.00;;;0.80;;
32146;SDS011;32190;49.112;8.598;2022-09-13T07:07:29;0.50;;;0.50;;
32146;SDS011;32190;49.112;8.598;2022-09-13T07:13:20;0.70;;;0.52;;
32146;SDS011;32190;49.112;8.598;2022-09-13T07:19:18;2.10;;;0.77;;
32146;SDS011;32190;49.112;8.598;2022-09-13T07:25:13;0.40;;;0.40;;
32146;SDS011;32190;49.112;8.598;2022-09-13T07:31:04;0.43;;;0.43;;
32146;SDS011;32190;49.112;8.598;2022-09-13T07:36:57;0.68;;;0.68;;
32146;SDS011;32190;49.112;8.598;2022-09-13T07:42:48;0.52;;;0.52;;
32146;SDS011;32190;49.112;8.598;2022-09-13T07:48:40;0.75;;;0.75;;
32146;SDS011;32190;49.112;8.598;2022-09-13T07:54:31;1.13;;;0.70;;
32146;SDS011;32190;49.112;8.598;2022-09-13T08:00:24;2.15;;;0.73;;
32146;SDS011;32190;49.112;8.598;2022-09-13T08:06:18;0.63;;;0.63;;
32146;SDS011;32190;49.112;8.598;2022-09-13T08:12:09;1.08;;;0.93;;
32146;SDS011;32190;49.112;8.598;2022-09-13T08:17:59;0.90;;;0.70;;
32146;SDS011;32190;49.112;8.598;2022-09-13T08:23:54;2.10;;;0.70;;
32146;SDS011;32190;49.112;8.598;2022-09-13T08:29:45;0.80;;;0.80;;
32146;SDS011;32190;49.112;8.598;2022-09-13T08:35:36;0.82;;;0.82;;
32146;SDS011;32190;49.112;8.598;2022-09-13T08:47:49;0.60;;;0.60;;
32146;SDS011;32190;49.112;8.598;2022-09-13T08:53:51;1.13;;;0.80;;
32146;SDS011;32190;49.112;8.598;2022-09-13T08:59:50;0.43;;;0.40;;
32146;SDS011;32190;49.112;8.598;2022-09-13T09:05:59;0.60;;;0.60;;
32146;SDS011;32190;49.112;8.598;2022-09-13T09:11:50;0.50;;;0.50;;
32146;SDS011;32190;49.112;8.598;2022-09-13T09:17:48;0.85;;;0.55;;
32146;SDS011;32190;49.112;8.598;2022-09-13T09:23:54;0.90;;;0.82;;
32146;SDS011;32190;49.112;8.598;2022-09-13T09:29:49;1.33;;;0.77;;
32146;SDS011;32190;49.112;8.598;2022-09-13T09:35:45;0.40;;;0.40;;
32146;SDS011;32190;49.112;8.598;2022-09-13T09:41:50;0.57;;;0.53;;
32146;SDS011;32190;49.112;8.598;2022-09-13T09:47:45;0.60;;;0.60;;
32146;SDS011;32190;49.112;8.598;2022-09-13T09:53:40;0.60;;;0.57;;
32146;SDS011;32190;49.112;8.598;2022-09-13T09:59:34;0.75;;;0.60;;
32146;SDS011;32190;49.112;8.598;2022-09-13T10:05:25;0.57;;;0.57;;
32146;SDS011;32190;49.112;8.598;2022-09-13T10:11:16;0.63;;;0.57;;
32146;SDS011;32190;49.112;8.598;2022-09-13T10:17:28;0.68;;;0.38;;
32146;SDS011;32190;49.112;8.598;2022-09-13T10:23:19;1.35;;;0.65;;
32146;SDS011;32190;49.112;8.598;2022-09-13T10:29:14;0.40;;;0.40;;
32146;SDS011;32190;49.112;8.598;2022-09-13T10:35:14;0.50;;;0.50;;
32146;SDS011;32190;49.112;8.598;2022-09-13T10:41:10;0.50;;;0.50;;
32146;SDS011;32190;49.112;8.598;2022-09-13T10:53:35;1.20;;;0.77;;
32146;SDS011;32190;49.112;8.598;2022-09-13T10:59:28;0.40;;;0.40;;
32146;SDS011;32190;49.112;8.598;2022-09-13T11:05:28;0.55;;;0.55;;
32146;SDS011;32190;49.112;8.598;2022-09-13T11:30:08;0.80;;;0.50;;
32146;SDS011;32190;49.112;8.598;2022-09-13T11:42:20;0.52;;;0.52;;
32146;SDS011;32190;49.112;8.598;2022-09-13T12:01:00;0.45;;;0.45;;
32146;SDS011;32190;49.112;8.598;2022-09-13T12:06:57;0.38;;;0.38;;
32146;SDS011;32190;49.112;8.598;2022-09-13T12:12:51;0.80;;;0.60;;
32146;SDS011;32190;49.112;8.598;2022-09-13T12:18:53;0.40;;;0.40;;
32146;SDS011;32190;49.112;8.598;2022-09-13T12:24:50;0.40;;;0.40;;
32146;SDS011;32190;49.112;8.598;2022-09-13T12:30:46;0.50;;;0.43;;
32146;SDS011;32190;49.112;8.598;2022-09-13T12:37:03;0.30;;;0.30;;
32146;SDS011;32190;49.112;8.598;2022-09-13T13:03:12;0.30;;;0.30;;
32146;SDS011;32190;49.112;8.598;2022-09-13T13:08:47;1.17;;;0.40;;
32146;SDS011;32190;49.112;8.598;2022-09-13T13:14:43;0.63;;;0.43;;
32146;SDS011;32190;49.112;8.598;2022-09-13T13:26:46;0.30;;;0.30;;
32146;SDS011;32190;49.112;8.598;2022-09-13T13:45:15;0.82;;;0.55;;
32146;SDS011;32190;49.112;8.598;2022-09-13T13:57:00;0.40;;;0.40;;
32146;SDS011;32190;49.112;8.598;2022-09-13T14:08:54;0.30;;;0.30;;
32146;SDS011;32190;49.112;8.598;2022-09-13T14:21:46;0.38;;;0.38;;
32146;SDS011;32190;49.112;8.598;2022-09-13T14:28:39;0.20;;;0.20;;
32146;SDS011;32190;49.112;8.598;2022-09-13T14:47:41;5.15;;;0.60;;
32146;SDS011;32190;49.112;8.598;2022-09-13T14:54:24;0.80;;;0.30;;
32146;SDS011;32190;49.112;8.598;2022-09-13T15:45:40;0.28;;;0.28;;
32146;SDS011;32190;49.112;8.598;2022-09-13T15:51:31;0.75;;;0.30;;
32146;SDS011;32190;49.112;8.598;2022-09-13T15:57:23;0.40;;;0.40;;
32146;SDS011;32190;49.112;8.598;2022-09-13T16:09:23;0.20;;;0.20;;
32146;SDS011;32190;49.112;8.598;2022-09-13T16:15:16;0.25;;;0.25;;
32146;SDS011;32190;49.112;8.598;2022-09-13T16:21:06;0.20;;;0.20;;
32146;SDS011;32190;49.112;8.598;2022-09-13T16:27:00;1.45;;;0.40;;
32146;SDS011;32190;49.112;8.598;2022-09-13T16:32:50;0.30;;;0.30;;
32146;SDS011;32190;49.112;8.598;2022-09-13T16:38:41;0.32;;;0.30;;
32146;SDS011;32190;49.112;8.598;2022-09-13T16:44:32;0.63;;;0.30;;
32146;SDS011;32190;49.112;8.598;2022-09-13T16:50:22;0.22;;;0.22;;
32146;SDS011;32190;49.112;8.598;2022-09-13T16:56:14;0.30;;;0.30;;
32146;SDS011;32190;49.112;8.598;2022-09-13T17:02:06;0.57;;;0.30;;
32146;SDS011;32190;49.112;8.598;2022-09-13T17:07:59;0.20;;;0.20;;
32146;SDS011;32190;49.112;8.598;2022-09-13T17:13:50;0.28;;;0.28;;
32146;SDS011;32190;49.112;8.598;2022-09-13T17:19:41;2.10;;;0.40;;
32146;SDS011;32190;49.112;8.598;2022-09-13T17:25:33;0.40;;;0.30;;
32146;SDS011;32190;49.112;8.598;2022-09-13T17:31:24;0.75;;;0.75;;
32146;SDS011;32190;49.112;8.598;2022-09-13T17:37:14;2.80;;;1.10;;
32146;SDS011;32190;49.112;8.598;2022-09-13T17:43:05;1.45;;;0.65;;
32146;SDS011;32190;49.112;8.598;2022-09-13T17:48:57;0.80;;;0.60;;
32146;SDS011;32190;49.112;8.598;2022-09-13T17:54:48;2.03;;;0.95;;
32146;SDS011;32190;49.112;8.598;2022-09-13T18:00:39;2.45;;;1.10;;
32146;SDS011;32190;49.112;8.598;2022-09-13T18:06:30;1.08;;;0.45;;
32146;SDS011;32190;49.112;8.598;2022-09-13T18:25:04;0.40;;;0.40;;
32146;SDS011;32190;49.112;8.598;2022-09-13T18:30:57;0.38;;;0.38;;
32146;SDS011;32190;49.112;8.598;2022-09-13T18:37:01;1.20;;;0.60;;
32146;SDS011;32190;49.112;8.598;2022-09-13T18:42:52;0.50;;;0.50;;
32146;SDS011;32190;49.112;8.598;2022-09-13T18:48:44;0.52;;;0.52;;
32146;SDS011;32190;49.112;8.598;2022-09-13T18:54:37;0.40;;;0.40;;
32146;SDS011;32190;49.112;8.598;2022-09-13T19:00:28;0.52;;;0.52;;
32146;SDS011;32190;49.112;8.598;2022-09-13T19:06:41;0.80;;;0.40;;
32146;SDS011;32190;49.112;8.598;2022-09-13T19:13:08;0.40;;;0.40;;
32146;SDS011;32190;49.112;8.598;2022-09-13T19:25:41;0.75;;;0.63;;
32146;SDS011;32190;49.112;8.598;2022-09-13T19:32:00;2.15;;;1.27;;
32146;SDS011;32190;49.112;8.598;2022-09-13T19:38:23;1.52;;;0.73;;
32146;SDS011;32190;49.112;8.598;2022-09-13T19:44:41;6.45;;;3.13;;
32146;SDS011;32190;49.112;8.598;2022-09-13T19:57:41;9.43;;;4.85;;
32146;SDS011;32190;49.112;8.598;2022-09-13T20:10:49;5.43;;;2.13;;
32146;SDS011;32190;49.112;8.598;2022-09-13T20:16:58;8.13;;;4.35;;
32146;SDS011;32190;49.112;8.598;2022-09-13T20:23:38;3.65;;;2.00;;
32146;SDS011;32190;49.112;8.598;2022-09-13T20:36:41;1.70;;;1.50;;
32146;SDS011;32190;49.112;8.598;2022-09-13T20:43:19;1.95;;;1.00;;
32146;SDS011;32190;49.112;8.598;2022-09-13T20:49:27;1.38;;;1.27;;
32146;SDS011;32190;49.112;8.598;2022-09-13T21:15:41;1.02;;;0.75;;
32146;SDS011;32190;49.112;8.598;2022-09-13T21:27:46;4.80;;;1.35;;
32146;SDS011;32190;49.112;8.598;2022-09-13T21:40:56;0.40;;;0.40;;
32146;SDS011;32190;49.112;8.598;2022-09-13T22:00:15;0.70;;;0.60;;
32146;SDS011;32190;49.112;8.598;2022-09-13T22:25:41;3.33;;;2.03;;
32146;SDS011;32190;49.112;8.598;2022-09-13T22:31:52;1.60;;;1.15;;
32146;SDS011;32190;49.112;8.598;2022-09-13T22:38:10;1.10;;;1.00;;
32146;SDS011;32190;49.112;8.598;2022-09-13T22:44:42;1.75;;;0.57;;
32146;SDS011;32190;49.112;8.598;2022-09-13T22:51:25;1.88;;;1.52;;
32146;SDS011;32190;49.112;8.598;2022-09-13T22:57:42;1.75;;;1.25;;
32146;SDS011;32190;49.112;8.598;2022-09-13T23:03:34;1.33;;;1.00;;
32146;SDS011;32190;49.112;8.598;2022-09-13T23:10:05;1.05;;;0.95;;
32146;SDS011;32190;49.112;8.598;2022-09-13T23:28:56;0.93;;;0.90;;
32146;SDS011;32190;49.112;8.598;2022-09-13T23:35:02;0.80;;;0.80;;
32146;SDS011;32190;49.112;8.598;2022-09-13T23:55:08;0.88;;;0.80;;
